Dillwyn, VA (23936)

11:02 PM EST on December 18, 2014 (GMT -0500)
KVAGOLDH2 | Change Station
CLOSE
Current Station
Personal Weather Station
Location: Gold Hill - Buckingham County, VA
Elevation: 489 ft
Nearby Weather Stations

Elev 489 ft 37.62 °N, 78.37 °W | Updated 3 minutes ago

Overcast
Overcast
33.3 °F
Feels Like 33 °F
N
1.2
Wind Variable Wind from ENE
Gusts 2.2 mph

Today
High -- | Low -- °F
--% Chance of Precip.
Yesterday
High -- | Low -- °F
Precip. -- in
7:23 AM 4:57 PM
Waning Crescent, 10% visible
Pressure 30.09 in
Visibility 10.0 miles
Clouds Overcast 8000 ft
Windchill 33 °F
Dew Point 24 °F
Humidity 67%
Rainfall 0.00 in
Snow Depth Not available.
UV 0 out of 12
Pollen .30 out of 12
Air Quality Not available.
Flu Activity Not available.
METAR KFVX 190335Z AUTO 00000KT 10SM OVC080 02/M03 A3009 RMK AO2 T00231030

More Conditions Fewer Conditions

Pressure 30.09 in
Visibility 10.0 miles
Clouds Overcast 8000 ft
Windchill 33 °F
Dew Point 24 °F
Humidity 67%
Rainfall 0.00 in
Snow Depth Not available.
UV 0 out of 12
Pollen .30 out of 12
Air Quality Not available.
Flu Activity Not available.
METAR KFVX 190335Z AUTO 00000KT 10SM OVC080 02/M03 A3009 RMK AO2 T00231030

More Conditions Fewer Conditions

10-Day Weather Forecast

Almanac

Astronomy

Dec. 18, 2014 Rise Set
Actual Time
Civil Twilight
Nautical Twilight
Astronomical Twilight
Moon
Length of Visible Light
Length of Day
Tomorrow will be .
, % of the Moon is Illuminated

Today's Extremes

State Highs State Lows

Community

WunderPhotos

Upload Photos

1,778,989 photos uploaded!

WunderBlogs® & News

Nearby

Air Quality

  Air Quality AQ Index Pollutant
Not available.

Snow Depth

Station Depth Elevation

Earthquake Activity

City Distance Mag. Time & Date
Minimum magnitude displayed is 2.5.

Coastal Water Temperatures

Place Temperature

Nearby Weather Stations